sensor_id;sensor_type;location;lat;lon;timestamp;temperature;humidity
24338;DHT22;12457;50.832;4.346;2022-12-07T00:01:23;6.00;99.90
24338;DHT22;12457;50.832;4.346;2022-12-07T00:03:51;5.90;99.90
24338;DHT22;12457;50.832;4.346;2022-12-07T00:06:17;5.80;99.90
24338;DHT22;12457;50.832;4.346;2022-12-07T00:08:44;5.70;99.90
24338;DHT22;12457;50.832;4.346;2022-12-07T00:11:13;5.60;99.90
24338;DHT22;12457;50.832;4.346;2022-12-07T00:13:39;5.60;99.90
24338;DHT22;12457;50.832;4.346;2022-12-07T00:16:07;5.60;99.90
24338;DHT22;12457;50.832;4.346;2022-12-07T00:18:34;5.50;99.90
24338;DHT22;12457;50.832;4.346;2022-12-07T00:21:13;5.50;99.90
24338;DHT22;12457;50.832;4.346;2022-12-07T00:23:40;5.40;99.90
24338;DHT22;12457;50.832;4.346;2022-12-07T00:26:11;5.20;99.90
24338;DHT22;12457;50.832;4.346;2022-12-07T00:28:37;5.30;99.90
24338;DHT22;12457;50.832;4.346;2022-12-07T00:31:05;5.20;99.90
24338;DHT22;12457;50.832;4.346;2022-12-07T00:33:32;5.30;99.90
24338;DHT22;12457;50.832;4.346;2022-12-07T00:35:58;5.30;99.90
24338;DHT22;12457;50.832;4.346;2022-12-07T00:38:27;5.30;99.90
24338;DHT22;12457;50.832;4.346;2022-12-07T00:41:02;5.30;99.90
24338;DHT22;12457;50.832;4.346;2022-12-07T00:43:29;5.30;99.90
24338;DHT22;12457;50.832;4.346;2022-12-07T00:45:55;5.20;99.90
24338;DHT22;12457;50.832;4.346;2022-12-07T00:48:21;5.20;99.90
24338;DHT22;12457;50.832;4.346;2022-12-07T00:50:47;5.30;99.90
24338;DHT22;12457;50.832;4.346;2022-12-07T00:53:14;5.40;99.90
24338;DHT22;12457;50.832;4.346;2022-12-07T00:55:39;5.30;99.90
24338;DHT22;12457;50.832;4.346;2022-12-07T00:58:05;5.30;99.90
24338;DHT22;12457;50.832;4.346;2022-12-07T01:00:31;5.20;99.90
24338;DHT22;12457;50.832;4.346;2022-12-07T01:02:58;5.20;99.90
24338;DHT22;12457;50.832;4.346;2022-12-07T01:05:23;5.20;99.90
24338;DHT22;12457;50.832;4.346;2022-12-07T01:07:49;5.20;99.90
24338;DHT22;12457;50.832;4.346;2022-12-07T01:10:15;5.00;99.90
24338;DHT22;12457;50.832;4.346;2022-12-07T01:12:40;5.00;99.90
24338;DHT22;12457;50.832;4.346;2022-12-07T01:15:07;4.90;99.90
24338;DHT22;12457;50.832;4.346;2022-12-07T01:17:33;4.90;99.90
24338;DHT22;12457;50.832;4.346;2022-12-07T01:19:59;5.00;99.90
24338;DHT22;12457;50.832;4.346;2022-12-07T01:22:25;4.90;99.90
24338;DHT22;12457;50.832;4.346;2022-12-07T01:24:51;5.00;99.90
24338;DHT22;12457;50.832;4.346;2022-12-07T01:27:16;5.10;99.90
24338;DHT22;12457;50.832;4.346;2022-12-07T01:29:42;5.10;99.90
24338;DHT22;12457;50.832;4.346;2022-12-07T01:32:08;5.20;99.90
24338;DHT22;12457;50.832;4.346;2022-12-07T01:34:33;5.20;99.90
24338;DHT22;12457;50.832;4.346;2022-12-07T01:36:59;5.10;99.90
24338;DHT22;12457;50.832;4.346;2022-12-07T01:39:25;5.10;99.90
24338;DHT22;12457;50.832;4.346;2022-12-07T01:41:52;5.20;99.90
24338;DHT22;12457;50.832;4.346;2022-12-07T01:44:24;5.10;99.90
24338;DHT22;12457;50.832;4.346;2022-12-07T01:46:55;5.30;99.90
24338;DHT22;12457;50.832;4.346;2022-12-07T01:49:46;5.40;99.90
24338;DHT22;12457;50.832;4.346;2022-12-07T01:54:47;5.30;99.90
24338;DHT22;12457;50.832;4.346;2022-12-07T01:57:15;5.30;99.90
24338;DHT22;12457;50.832;4.346;2022-12-07T01:59:42;5.20;99.90
24338;DHT22;12457;50.832;4.346;2022-12-07T02:02:15;5.30;99.90
24338;DHT22;12457;50.832;4.346;2022-12-07T02:04:43;5.30;99.90
24338;DHT22;12457;50.832;4.346;2022-12-07T02:07:09;5.30;99.90
24338;DHT22;12457;50.832;4.346;2022-12-07T02:09:35;5.30;99.90
24338;DHT22;12457;50.832;4.346;2022-12-07T02:12:01;5.40;99.90
24338;DHT22;12457;50.832;4.346;2022-12-07T02:14:28;5.40;99.90
24338;DHT22;12457;50.832;4.346;2022-12-07T02:17:28;5.40;99.90
24338;DHT22;12457;50.832;4.346;2022-12-07T02:20:21;5.50;99.90
24338;DHT22;12457;50.832;4.346;2022-12-07T02:25:43;5.50;99.90
24338;DHT22;12457;50.832;4.346;2022-12-07T02:31:03;5.40;99.90
24338;DHT22;12457;50.832;4.346;2022-12-07T02:33:58;5.40;99.90
24338;DHT22;12457;50.832;4.346;2022-12-07T02:36:31;5.40;99.90
24338;DHT22;12457;50.832;4.346;2022-12-07T02:39:32;5.20;99.90
24338;DHT22;12457;50.832;4.346;2022-12-07T02:41:58;5.20;99.90
24338;DHT22;12457;50.832;4.346;2022-12-07T02:44:27;5.20;99.90
24338;DHT22;12457;50.832;4.346;2022-12-07T02:47:04;5.30;99.90
24338;DHT22;12457;50.832;4.346;2022-12-07T02:49:31;5.40;99.90
24338;DHT22;12457;50.832;4.346;2022-12-07T02:51:57;5.30;99.90
24338;DHT22;12457;50.832;4.346;2022-12-07T02:54:23;5.30;99.90
24338;DHT22;12457;50.832;4.346;2022-12-07T03:02:32;5.20;99.90
24338;DHT22;12457;50.832;4.346;2022-12-07T03:08:01;5.10;99.90
24338;DHT22;12457;50.832;4.346;2022-12-07T03:13:30;5.10;99.90
24338;DHT22;12457;50.832;4.346;2022-12-07T03:16:05;5.00;99.90
24338;DHT22;12457;50.832;4.346;2022-12-07T03:18:38;4.80;99.90
24338;DHT22;12457;50.832;4.346;2022-12-07T03:21:08;4.80;99.90
24338;DHT22;12457;50.832;4.346;2022-12-07T03:23:39;4.80;99.90
24338;DHT22;12457;50.832;4.346;2022-12-07T03:26:08;4.70;99.90
24338;DHT22;12457;50.832;4.346;2022-12-07T03:28:38;4.80;99.90
24338;DHT22;12457;50.832;4.346;2022-12-07T03:31:16;4.80;99.90
24338;DHT22;12457;50.832;4.346;2022-12-07T03:33:51;4.90;99.90
24338;DHT22;12457;50.832;4.346;2022-12-07T03:36:40;4.80;99.90
24338;DHT22;12457;50.832;4.346;2022-12-07T03:39:23;4.90;99.90
24338;DHT22;12457;50.832;4.346;2022-12-07T03:41:50;5.00;99.90
24338;DHT22;12457;50.832;4.346;2022-12-07T03:44:17;5.20;99.90
24338;DHT22;12457;50.832;4.346;2022-12-07T03:47:01;5.20;99.90
24338;DHT22;12457;50.832;4.346;2022-12-07T03:49:54;5.10;99.90
24338;DHT22;12457;50.832;4.346;2022-12-07T03:52:22;5.10;99.90
24338;DHT22;12457;50.832;4.346;2022-12-07T03:54:51;5.00;99.90
24338;DHT22;12457;50.832;4.346;2022-12-07T03:57:21;4.90;99.90
24338;DHT22;12457;50.832;4.346;2022-12-07T03:59:48;4.80;99.90
24338;DHT22;12457;50.832;4.346;2022-12-07T04:02:13;4.70;99.90
24338;DHT22;12457;50.832;4.346;2022-12-07T04:04:40;4.70;99.90
24338;DHT22;12457;50.832;4.346;2022-12-07T04:07:07;4.70;99.90
24338;DHT22;12457;50.832;4.346;2022-12-07T04:09:33;4.70;99.90
24338;DHT22;12457;50.832;4.346;2022-12-07T04:11:58;4.70;99.90
24338;DHT22;12457;50.832;4.346;2022-12-07T04:14:25;4.70;99.90
24338;DHT22;12457;50.832;4.346;2022-12-07T04:16:55;4.70;99.90
24338;DHT22;12457;50.832;4.346;2022-12-07T04:19:29;4.60;99.90
24338;DHT22;12457;50.832;4.346;2022-12-07T04:21:56;4.50;99.90
24338;DHT22;12457;50.832;4.346;2022-12-07T04:24:23;4.40;99.90
24338;DHT22;12457;50.832;4.346;2022-12-07T04:26:49;4.50;99.90
24338;DHT22;12457;50.832;4.346;2022-12-07T04:29:15;4.60;99.90
24338;DHT22;12457;50.832;4.346;2022-12-07T04:31:42;4.60;99.90
24338;DHT22;12457;50.832;4.346;2022-12-07T04:34:08;4.60;99.90
24338;DHT22;12457;50.832;4.346;2022-12-07T04:36:34;4.60;99.90
24338;DHT22;12457;50.832;4.346;2022-12-07T04:39:00;4.60;99.90
24338;DHT22;12457;50.832;4.346;2022-12-07T04:41:26;4.70;99.90
24338;DHT22;12457;50.832;4.346;2022-12-07T04:44:01;4.70;99.90
24338;DHT22;12457;50.832;4.346;2022-12-07T04:46:29;4.80;99.90
24338;DHT22;12457;50.832;4.346;2022-12-07T04:48:55;4.80;99.90
24338;DHT22;12457;50.832;4.346;2022-12-07T04:51:23;4.80;99.90
24338;DHT22;12457;50.832;4.346;2022-12-07T04:53:49;4.90;99.90
24338;DHT22;12457;50.832;4.346;2022-12-07T04:56:16;4.90;99.90
24338;DHT22;12457;50.832;4.346;2022-12-07T04:58:43;4.90;99.90
24338;DHT22;12457;50.832;4.346;2022-12-07T05:01:10;4.80;99.90
24338;DHT22;12457;50.832;4.346;2022-12-07T05:03:36;4.80;99.90
24338;DHT22;12457;50.832;4.346;2022-12-07T05:06:03;4.80;99.90
24338;DHT22;12457;50.832;4.346;2022-12-07T05:08:29;4.80;99.90
24338;DHT22;12457;50.832;4.346;2022-12-07T05:10:54;4.80;99.90
24338;DHT22;12457;50.832;4.346;2022-12-07T05:13:20;4.80;99.90
24338;DHT22;12457;50.832;4.346;2022-12-07T05:15:49;4.80;99.90
24338;DHT22;12457;50.832;4.346;2022-12-07T05:18:15;4.70;99.90
24338;DHT22;12457;50.832;4.346;2022-12-07T05:20:42;4.70;99.90
24338;DHT22;12457;50.832;4.346;2022-12-07T05:23:08;4.70;99.90
24338;DHT22;12457;50.832;4.346;2022-12-07T05:25:33;4.80;99.90
24338;DHT22;12457;50.832;4.346;2022-12-07T05:27:59;4.80;99.90
24338;DHT22;12457;50.832;4.346;2022-12-07T05:30:26;4.90;99.90
24338;DHT22;12457;50.832;4.346;2022-12-07T05:32:52;4.90;99.90
24338;DHT22;12457;50.832;4.346;2022-12-07T05:35:18;5.00;99.90
24338;DHT22;12457;50.832;4.346;2022-12-07T05:37:45;5.10;99.90
24338;DHT22;12457;50.832;4.346;2022-12-07T05:40:11;5.10;99.90
24338;DHT22;12457;50.832;4.346;2022-12-07T05:42:38;5.00;99.90
24338;DHT22;12457;50.832;4.346;2022-12-07T05:45:04;5.00;99.90
24338;DHT22;12457;50.832;4.346;2022-12-07T05:47:30;4.90;99.90
24338;DHT22;12457;50.832;4.346;2022-12-07T05:49:55;5.00;99.90
24338;DHT22;12457;50.832;4.346;2022-12-07T05:52:21;4.90;99.90
24338;DHT22;12457;50.832;4.346;2022-12-07T05:54:48;4.90;99.90
24338;DHT22;12457;50.832;4.346;2022-12-07T05:57:14;4.80;99.90
24338;DHT22;12457;50.832;4.346;2022-12-07T05:59:40;4.90;99.90
24338;DHT22;12457;50.832;4.346;2022-12-07T06:02:11;4.90;99.90
24338;DHT22;12457;50.832;4.346;2022-12-07T06:04:40;5.00;99.90
24338;DHT22;12457;50.832;4.346;2022-12-07T06:07:06;5.00;99.90
24338;DHT22;12457;50.832;4.346;2022-12-07T06:09:33;5.00;99.90
24338;DHT22;12457;50.832;4.346;2022-12-07T06:11:59;4.90;99.90
24338;DHT22;12457;50.832;4.346;2022-12-07T06:14:43;4.90;99.90
24338;DHT22;12457;50.832;4.346;2022-12-07T06:17:10;5.00;99.90
24338;DHT22;12457;50.832;4.346;2022-12-07T06:19:36;5.00;99.90
24338;DHT22;12457;50.832;4.346;2022-12-07T06:22:02;5.00;99.90
24338;DHT22;12457;50.832;4.346;2022-12-07T06:24:33;4.90;99.90
24338;DHT22;12457;50.832;4.346;2022-12-07T06:26:59;4.80;99.90
24338;DHT22;12457;50.832;4.346;2022-12-07T06:29:25;4.80;99.90
24338;DHT22;12457;50.832;4.346;2022-12-07T06:31:51;4.70;99.90
24338;DHT22;12457;50.832;4.346;2022-12-07T06:34:19;4.70;99.90
24338;DHT22;12457;50.832;4.346;2022-12-07T06:36:45;4.70;99.90
24338;DHT22;12457;50.832;4.346;2022-12-07T06:39:12;4.80;99.90
24338;DHT22;12457;50.832;4.346;2022-12-07T06:41:39;4.70;99.90
24338;DHT22;12457;50.832;4.346;2022-12-07T06:44:06;4.80;99.90
24338;DHT22;12457;50.832;4.346;2022-12-07T06:46:32;4.90;99.90
24338;DHT22;12457;50.832;4.346;2022-12-07T06:48:57;5.00;99.90
24338;DHT22;12457;50.832;4.346;2022-12-07T06:51:23;5.00;99.90
24338;DHT22;12457;50.832;4.346;2022-12-07T06:53:49;5.10;99.90
24338;DHT22;12457;50.832;4.346;2022-12-07T06:56:15;5.10;99.90
24338;DHT22;12457;50.832;4.346;2022-12-07T06:58:41;5.10;99.90
24338;DHT22;12457;50.832;4.346;2022-12-07T07:01:15;5.10;99.90
24338;DHT22;12457;50.832;4.346;2022-12-07T07:03:41;5.10;99.90
24338;DHT22;12457;50.832;4.346;2022-12-07T07:06:07;5.00;99.90
24338;DHT22;12457;50.832;4.346;2022-12-07T07:08:33;5.00;99.90
24338;DHT22;12457;50.832;4.346;2022-12-07T07:10:59;5.00;99.90
24338;DHT22;12457;50.832;4.346;2022-12-07T07:13:26;5.00;99.90
24338;DHT22;12457;50.832;4.346;2022-12-07T07:15:51;5.00;99.90
24338;DHT22;12457;50.832;4.346;2022-12-07T07:18:17;5.00;99.90
24338;DHT22;12457;50.832;4.346;2022-12-07T07:20:43;5.00;99.90
24338;DHT22;12457;50.832;4.346;2022-12-07T07:23:08;5.10;99.90
24338;DHT22;12457;50.832;4.346;2022-12-07T07:25:34;5.10;99.90
24338;DHT22;12457;50.832;4.346;2022-12-07T07:28:00;5.30;99.90
24338;DHT22;12457;50.832;4.346;2022-12-07T07:30:26;5.20;99.90
24338;DHT22;12457;50.832;4.346;2022-12-07T07:33:00;5.20;99.90
24338;DHT22;12457;50.832;4.346;2022-12-07T07:35:27;5.20;99.90
24338;DHT22;12457;50.832;4.346;2022-12-07T07:37:53;5.20;99.90
24338;DHT22;12457;50.832;4.346;2022-12-07T07:40:18;5.20;99.90
24338;DHT22;12457;50.832;4.346;2022-12-07T07:42:50;5.30;99.90
24338;DHT22;12457;50.832;4.346;2022-12-07T07:45:16;5.30;99.90
24338;DHT22;12457;50.832;4.346;2022-12-07T07:47:42;5.40;99.90
24338;DHT22;12457;50.832;4.346;2022-12-07T07:50:08;5.50;99.90
24338;DHT22;12457;50.832;4.346;2022-12-07T07:52:34;5.40;99.90
24338;DHT22;12457;50.832;4.346;2022-12-07T07:54:59;5.40;99.90
24338;DHT22;12457;50.832;4.346;2022-12-07T07:57:25;5.40;99.90
24338;DHT22;12457;50.832;4.346;2022-12-07T07:59:51;5.30;99.90
24338;DHT22;12457;50.832;4.346;2022-12-07T08:02:18;5.20;99.90
24338;DHT22;12457;50.832;4.346;2022-12-07T08:04:45;5.20;99.90
24338;DHT22;12457;50.832;4.346;2022-12-07T08:07:11;5.10;99.90
24338;DHT22;12457;50.832;4.346;2022-12-07T08:09:37;5.10;99.90
24338;DHT22;12457;50.832;4.346;2022-12-07T08:12:03;5.00;99.90
24338;DHT22;12457;50.832;4.346;2022-12-07T08:14:29;5.10;99.90
24338;DHT22;12457;50.832;4.346;2022-12-07T08:16:55;5.10;99.90
24338;DHT22;12457;50.832;4.346;2022-12-07T08:19:20;5.00;99.90
24338;DHT22;12457;50.832;4.346;2022-12-07T08:21:46;5.00;99.90
24338;DHT22;12457;50.832;4.346;2022-12-07T08:24:12;5.10;99.90
24338;DHT22;12457;50.832;4.346;2022-12-07T08:26:38;5.00;99.90
24338;DHT22;12457;50.832;4.346;2022-12-07T08:29:03;5.00;99.90
24338;DHT22;12457;50.832;4.346;2022-12-07T08:31:29;5.00;99.90
24338;DHT22;12457;50.832;4.346;2022-12-07T08:33:55;5.00;99.90
24338;DHT22;12457;50.832;4.346;2022-12-07T08:36:21;5.10;99.90
24338;DHT22;12457;50.832;4.346;2022-12-07T08:38:48;5.00;99.90
24338;DHT22;12457;50.832;4.346;2022-12-07T08:41:14;5.00;99.90
24338;DHT22;12457;50.832;4.346;2022-12-07T08:43:40;5.00;99.90
24338;DHT22;12457;50.832;4.346;2022-12-07T08:46:34;5.00;99.90
24338;DHT22;12457;50.832;4.346;2022-12-07T08:49:09;5.10;99.90
24338;DHT22;12457;50.832;4.346;2022-12-07T08:51:37;5.30;99.90
24338;DHT22;12457;50.832;4.346;2022-12-07T08:54:07;5.40;99.90
24338;DHT22;12457;50.832;4.346;2022-12-07T08:56:33;5.50;99.90
24338;DHT22;12457;50.832;4.346;2022-12-07T08:59:00;5.60;99.90
24338;DHT22;12457;50.832;4.346;2022-12-07T09:01:25;5.70;99.90
24338;DHT22;12457;50.832;4.346;2022-12-07T09:03:52;5.90;99.90
24338;DHT22;12457;50.832;4.346;2022-12-07T09:06:18;6.00;99.90
24338;DHT22;12457;50.832;4.346;2022-12-07T09:08:47;6.10;99.90
24338;DHT22;12457;50.832;4.346;2022-12-07T09:11:14;6.20;99.90
24338;DHT22;12457;50.832;4.346;2022-12-07T09:13:39;6.20;99.90
24338;DHT22;12457;50.832;4.346;2022-12-07T09:16:06;6.20;99.90
24338;DHT22;12457;50.832;4.346;2022-12-07T09:18:32;6.30;99.90
24338;DHT22;12457;50.832;4.346;2022-12-07T09:20:58;6.30;99.90
24338;DHT22;12457;50.832;4.346;2022-12-07T09:23:24;6.40;99.90
24338;DHT22;12457;50.832;4.346;2022-12-07T09:25:50;6.40;99.90
24338;DHT22;12457;50.832;4.346;2022-12-07T09:28:16;6.40;99.90
24338;DHT22;12457;50.832;4.346;2022-12-07T09:30:47;6.60;99.90
24338;DHT22;12457;50.832;4.346;2022-12-07T09:33:13;6.60;99.90
24338;DHT22;12457;50.832;4.346;2022-12-07T09:35:47;6.70;99.90
24338;DHT22;12457;50.832;4.346;2022-12-07T09:38:13;6.70;99.90
24338;DHT22;12457;50.832;4.346;2022-12-07T09:40:40;6.80;99.90
24338;DHT22;12457;50.832;4.346;2022-12-07T09:43:17;6.80;99.90
24338;DHT22;12457;50.832;4.346;2022-12-07T09:45:44;7.00;99.90
24338;DHT22;12457;50.832;4.346;2022-12-07T09:48:17;7.00;99.90
24338;DHT22;12457;50.832;4.346;2022-12-07T09:50:44;6.90;99.90
24338;DHT22;12457;50.832;4.346;2022-12-07T09:53:18;6.90;99.90
24338;DHT22;12457;50.832;4.346;2022-12-07T09:55:46;6.90;99.90
24338;DHT22;12457;50.832;4.346;2022-12-07T09:58:22;6.80;99.90
24338;DHT22;12457;50.832;4.346;2022-12-07T10:00:52;6.90;99.90
24338;DHT22;12457;50.832;4.346;2022-12-07T10:03:19;7.00;99.90
24338;DHT22;12457;50.832;4.346;2022-12-07T10:05:47;7.20;99.90
24338;DHT22;12457;50.832;4.346;2022-12-07T10:08:14;7.20;99.90
24338;DHT22;12457;50.832;4.346;2022-12-07T10:10:44;7.20;99.90
24338;DHT22;12457;50.832;4.346;2022-12-07T10:13:35;7.30;99.90
24338;DHT22;12457;50.832;4.346;2022-12-07T10:16:01;7.30;99.90
24338;DHT22;12457;50.832;4.346;2022-12-07T10:18:36;7.30;99.90
24338;DHT22;12457;50.832;4.346;2022-12-07T10:29:29;7.50;99.90
24338;DHT22;12457;50.832;4.346;2022-12-07T10:32:05;7.50;99.90
24338;DHT22;12457;50.832;4.346;2022-12-07T10:34:33;7.70;99.90
24338;DHT22;12457;50.832;4.346;2022-12-07T10:37:17;7.80;99.90
24338;DHT22;12457;50.832;4.346;2022-12-07T10:39:49;7.80;99.90
24338;DHT22;12457;50.832;4.346;2022-12-07T10:42:29;7.90;99.90
24338;DHT22;12457;50.832;4.346;2022-12-07T10:45:16;7.80;99.90
24338;DHT22;12457;50.832;4.346;2022-12-07T10:56:36;7.80;99.90
24338;DHT22;12457;50.832;4.346;2022-12-07T10:59:52;7.70;99.90
24338;DHT22;12457;50.832;4.346;2022-12-07T11:02:24;7.70;99.90
24338;DHT22;12457;50.832;4.346;2022-12-07T11:08:01;7.90;99.90
24338;DHT22;12457;50.832;4.346;2022-12-07T11:13:23;8.30;99.90
24338;DHT22;12457;50.832;4.346;2022-12-07T11:21:30;8.30;99.90
24338;DHT22;12457;50.832;4.346;2022-12-07T11:24:06;8.20;99.90
24338;DHT22;12457;50.832;4.346;2022-12-07T11:27:04;8.10;99.90
24338;DHT22;12457;50.832;4.346;2022-12-07T11:32:39;7.90;99.90
24338;DHT22;12457;50.832;4.346;2022-12-07T11:38:07;7.70;99.90
24338;DHT22;12457;50.832;4.346;2022-12-07T11:40:35;7.70;99.90
24338;DHT22;12457;50.832;4.346;2022-12-07T11:45:34;7.40;99.90
24338;DHT22;12457;50.832;4.346;2022-12-07T11:48:04;7.30;99.90
24338;DHT22;12457;50.832;4.346;2022-12-07T11:50:53;7.20;99.90
24338;DHT22;12457;50.832;4.346;2022-12-07T11:53:39;7.20;99.90
24338;DHT22;12457;50.832;4.346;2022-12-07T11:56:16;7.10;99.90
24338;DHT22;12457;50.832;4.346;2022-12-07T11:58:54;7.10;99.90
24338;DHT22;12457;50.832;4.346;2022-12-07T12:01:29;7.20;99.90
24338;DHT22;12457;50.832;4.346;2022-12-07T12:06:35;7.50;99.90
24338;DHT22;12457;50.832;4.346;2022-12-07T12:17:45;7.60;99.90
24338;DHT22;12457;50.832;4.346;2022-12-07T12:20:30;7.80;99.90
24338;DHT22;12457;50.832;4.346;2022-12-07T12:23:15;7.90;99.90
24338;DHT22;12457;50.832;4.346;2022-12-07T12:25:51;7.90;99.90
24338;DHT22;12457;50.832;4.346;2022-12-07T12:31:15;7.80;99.90
24338;DHT22;12457;50.832;4.346;2022-12-07T12:33:53;7.80;99.90
24338;DHT22;12457;50.832;4.346;2022-12-07T12:36:27;7.80;99.90
24338;DHT22;12457;50.832;4.346;2022-12-07T12:39:16;7.80;99.90
24338;DHT22;12457;50.832;4.346;2022-12-07T12:46:50;7.70;99.90
24338;DHT22;12457;50.832;4.346;2022-12-07T12:51:52;7.40;99.90
24338;DHT22;12457;50.832;4.346;2022-12-07T12:54:22;7.50;99.90
24338;DHT22;12457;50.832;4.346;2022-12-07T12:59:38;7.70;99.90
24338;DHT22;12457;50.832;4.346;2022-12-07T13:21:01;8.30;99.90
24338;DHT22;12457;50.832;4.346;2022-12-07T13:28:41;8.30;99.90
24338;DHT22;12457;50.832;4.346;2022-12-07T13:31:14;8.40;99.90
24338;DHT22;12457;50.832;4.346;2022-12-07T13:33:45;8.50;99.90
24338;DHT22;12457;50.832;4.346;2022-12-07T13:36:38;8.50;99.90
24338;DHT22;12457;50.832;4.346;2022-12-07T13:41:42;8.40;99.90
24338;DHT22;12457;50.832;4.346;2022-12-07T13:44:17;8.40;99.90
24338;DHT22;12457;50.832;4.346;2022-12-07T13:47:05;8.50;99.90
24338;DHT22;12457;50.832;4.346;2022-12-07T13:49:36;8.40;99.90
24338;DHT22;12457;50.832;4.346;2022-12-07T13:52:30;8.30;99.90
24338;DHT22;12457;50.832;4.346;2022-12-07T13:55:08;8.30;99.90
24338;DHT22;12457;50.832;4.346;2022-12-07T13:57:39;8.30;99.90
24338;DHT22;12457;50.832;4.346;2022-12-07T14:00:16;8.30;99.90
24338;DHT22;12457;50.832;4.346;2022-12-07T14:03:04;8.10;99.90
24338;DHT22;12457;50.832;4.346;2022-12-07T14:05:47;8.00;99.90
24338;DHT22;12457;50.832;4.346;2022-12-07T14:08:30;8.00;99.90
24338;DHT22;12457;50.832;4.346;2022-12-07T14:10:56;7.90;99.90
24338;DHT22;12457;50.832;4.346;2022-12-07T14:15:54;7.70;99.90
24338;DHT22;12457;50.832;4.346;2022-12-07T14:18:40;7.60;99.90
24338;DHT22;12457;50.832;4.346;2022-12-07T14:23:36;7.10;99.90
24338;DHT22;12457;50.832;4.346;2022-12-07T14:26:20;7.20;99.90
24338;DHT22;12457;50.832;4.346;2022-12-07T14:28:47;7.30;99.90
24338;DHT22;12457;50.832;4.346;2022-12-07T14:31:15;7.30;99.90
24338;DHT22;12457;50.832;4.346;2022-12-07T14:33:41;7.10;99.90
24338;DHT22;12457;50.832;4.346;2022-12-07T14:36:12;6.90;99.90
24338;DHT22;12457;50.832;4.346;2022-12-07T14:38:38;6.60;99.90
24338;DHT22;12457;50.832;4.346;2022-12-07T14:41:06;6.70;99.90
24338;DHT22;12457;50.832;4.346;2022-12-07T14:43:56;6.50;99.90
24338;DHT22;12457;50.832;4.346;2022-12-07T14:46:21;6.40;99.90
24338;DHT22;12457;50.832;4.346;2022-12-07T14:48:47;6.50;99.90
24338;DHT22;12457;50.832;4.346;2022-12-07T14:51:13;6.60;99.90
24338;DHT22;12457;50.832;4.346;2022-12-07T14:53:44;6.50;99.90
24338;DHT22;12457;50.832;4.346;2022-12-07T14:56:11;6.50;99.90
24338;DHT22;12457;50.832;4.346;2022-12-07T14:58:37;6.50;99.90
24338;DHT22;12457;50.832;4.346;2022-12-07T15:01:03;6.50;99.90
24338;DHT22;12457;50.832;4.346;2022-12-07T15:03:28;6.40;99.90
24338;DHT22;12457;50.832;4.346;2022-12-07T15:05:55;6.40;99.90
24338;DHT22;12457;50.832;4.346;2022-12-07T15:08:20;6.50;99.90
24338;DHT22;12457;50.832;4.346;2022-12-07T15:10:46;6.60;99.90
24338;DHT22;12457;50.832;4.346;2022-12-07T15:13:12;6.60;99.90
24338;DHT22;12457;50.832;4.346;2022-12-07T15:15:56;6.60;99.90
24338;DHT22;12457;50.832;4.346;2022-12-07T15:18:23;6.50;99.90
24338;DHT22;12457;50.832;4.346;2022-12-07T15:20:49;6.50;99.90
24338;DHT22;12457;50.832;4.346;2022-12-07T15:23:15;6.50;99.90
24338;DHT22;12457;50.832;4.346;2022-12-07T15:25:46;6.50;99.90
24338;DHT22;12457;50.832;4.346;2022-12-07T15:28:12;6.40;99.90
24338;DHT22;12457;50.832;4.346;2022-12-07T15:30:40;6.30;99.90
24338;DHT22;12457;50.832;4.346;2022-12-07T15:33:06;6.30;99.90
24338;DHT22;12457;50.832;4.346;2022-12-07T15:35:31;6.40;99.90
24338;DHT22;12457;50.832;4.346;2022-12-07T15:37:57;6.50;99.90
24338;DHT22;12457;50.832;4.346;2022-12-07T15:40:23;6.70;99.90
24338;DHT22;12457;50.832;4.346;2022-12-07T15:42:48;6.80;99.90
24338;DHT22;12457;50.832;4.346;2022-12-07T15:45:14;6.50;99.90
24338;DHT22;12457;50.832;4.346;2022-12-07T15:47:42;6.40;99.90
24338;DHT22;12457;50.832;4.346;2022-12-07T15:50:13;6.60;99.90
24338;DHT22;12457;50.832;4.346;2022-12-07T15:52:39;6.50;99.90
24338;DHT22;12457;50.832;4.346;2022-12-07T15:55:05;6.50;99.90
24338;DHT22;12457;50.832;4.346;2022-12-07T15:57:35;6.50;99.90
24338;DHT22;12457;50.832;4.346;2022-12-07T16:00:03;6.50;99.90
24338;DHT22;12457;50.832;4.346;2022-12-07T16:02:29;6.50;99.90
24338;DHT22;12457;50.832;4.346;2022-12-07T16:04:55;6.70;99.90
24338;DHT22;12457;50.832;4.346;2022-12-07T16:07:20;6.70;99.90
24338;DHT22;12457;50.832;4.346;2022-12-07T16:09:46;6.70;99.90
24338;DHT22;12457;50.832;4.346;2022-12-07T16:12:13;6.60;99.90
24338;DHT22;12457;50.832;4.346;2022-12-07T16:14:39;6.60;99.90
24338;DHT22;12457;50.832;4.346;2022-12-07T16:17:07;6.60;99.90
24338;DHT22;12457;50.832;4.346;2022-12-07T16:19:33;6.70;99.90
24338;DHT22;12457;50.832;4.346;2022-12-07T16:21:59;6.60;99.90
24338;DHT22;12457;50.832;4.346;2022-12-07T16:24:26;6.50;99.90
24338;DHT22;12457;50.832;4.346;2022-12-07T16:26:52;6.50;99.90
24338;DHT22;12457;50.832;4.346;2022-12-07T16:29:19;6.50;99.90
24338;DHT22;12457;50.832;4.346;2022-12-07T16:31:45;6.50;99.90
24338;DHT22;12457;50.832;4.346;2022-12-07T16:34:11;6.50;99.90
24338;DHT22;12457;50.832;4.346;2022-12-07T16:36:37;6.50;99.90
24338;DHT22;12457;50.832;4.346;2022-12-07T16:39:04;6.50;99.90
24338;DHT22;12457;50.832;4.346;2022-12-07T16:41:30;6.60;99.90
24338;DHT22;12457;50.832;4.346;2022-12-07T16:43:56;6.50;99.90
24338;DHT22;12457;50.832;4.346;2022-12-07T16:46:21;6.50;99.90
24338;DHT22;12457;50.832;4.346;2022-12-07T16:48:47;6.60;99.90
24338;DHT22;12457;50.832;4.346;2022-12-07T16:51:14;6.50;99.90
24338;DHT22;12457;50.832;4.346;2022-12-07T16:53:41;6.60;99.90
24338;DHT22;12457;50.832;4.346;2022-12-07T16:56:12;6.60;99.90
24338;DHT22;12457;50.832;4.346;2022-12-07T16:58:38;6.70;99.90
24338;DHT22;12457;50.832;4.346;2022-12-07T17:01:19;6.60;99.90
24338;DHT22;12457;50.832;4.346;2022-12-07T17:03:45;6.60;99.90
24338;DHT22;12457;50.832;4.346;2022-12-07T17:06:13;6.40;99.90
24338;DHT22;12457;50.832;4.346;2022-12-07T17:08:39;6.40;99.90
24338;DHT22;12457;50.832;4.346;2022-12-07T17:11:13;6.50;99.90
24338;DHT22;12457;50.832;4.346;2022-12-07T17:13:39;6.50;99.90
24338;DHT22;12457;50.832;4.346;2022-12-07T17:16:24;6.50;99.90
24338;DHT22;12457;50.832;4.346;2022-12-07T17:18:50;6.60;99.90
24338;DHT22;12457;50.832;4.346;2022-12-07T17:21:15;6.60;99.90
24338;DHT22;12457;50.832;4.346;2022-12-07T17:23:41;6.60;99.90
24338;DHT22;12457;50.832;4.346;2022-12-07T17:26:18;6.50;99.90
24338;DHT22;12457;50.832;4.346;2022-12-07T17:28:45;6.50;99.90
24338;DHT22;12457;50.832;4.346;2022-12-07T17:31:16;6.40;99.90
24338;DHT22;12457;50.832;4.346;2022-12-07T17:33:42;6.50;99.90
24338;DHT22;12457;50.832;4.346;2022-12-07T17:36:25;6.50;99.90
24338;DHT22;12457;50.832;4.346;2022-12-07T17:38:51;6.40;99.90
24338;DHT22;12457;50.832;4.346;2022-12-07T17:41:25;6.40;99.90
24338;DHT22;12457;50.832;4.346;2022-12-07T17:44:12;6.40;99.90
24338;DHT22;12457;50.832;4.346;2022-12-07T17:46:39;6.40;99.90
24338;DHT22;12457;50.832;4.346;2022-12-07T17:49:05;6.50;99.90
24338;DHT22;12457;50.832;4.346;2022-12-07T17:51:31;6.50;99.90
24338;DHT22;12457;50.832;4.346;2022-12-07T17:54:16;6.50;99.90